Bunker Hill, IN

10:58 AM EDT on April 21, 2015 (GMT -0400)
Logansport Municipal | | Change Station
CLOSE
Current Station
Airport
Location: Logansport,
Elevation: 738 ft
Nearby Weather Stations
Active Advisory: Wind Advisory

Elev 738 ft 40.71 °N, 86.37 °W | Updated 23 minutes ago

Clear
Clear
46 °F
Feels Like 38 °F
N
22
Wind Variable Wind from WSW
Gusts 28 mph

Today
High -- | Low -- °F
--% Chance of Precip.
Yesterday
High -- | Low -- °F
Precip. -- in
6:57 AM 8:29 PM
Waxing Crescent, 11% visible
Pressure 29.71 in
Visibility 10.0 miles
Clouds Clear
Windchill 38 °F
Dew Point 32 °F
Humidity 57%
Rainfall 0.33 in
Snow Depth Not available.
UV 5 out of 12
Pollen 11.30 out of 12
Air Quality Not available.
Flu Activity Local Activity
METAR KGGP 211435Z AUTO 25019G24KT 10SM CLR 08/00 A2971 RMK AO2

More Conditions Fewer Conditions

Pressure 29.71 in
Visibility 10.0 miles
Clouds Clear
Windchill 38 °F
Dew Point 32 °F
Humidity 57%
Rainfall 0.33 in
Snow Depth Not available.
UV 5 out of 12
Pollen 11.30 out of 12
Air Quality Not available.
Flu Activity Local Activity
METAR KGGP 211435Z AUTO 25019G24KT 10SM CLR 08/00 A2971 RMK AO2

More Conditions Fewer Conditions

10-Day Weather Forecast

Almanac

Astronomy

Apr. 21, 2015 Rise Set
Actual Time
Civil Twilight
Nautical Twilight
Astronomical Twilight
Moon
Length of Visible Light
Length of Day
Tomorrow will be .
, % of the Moon is Illuminated

Today's Extremes

State Highs State Lows

Community

WunderPhotos

Upload Photos

1,815,413 photos uploaded!

WunderBlogs® & News

Nearby

Air Quality

  Air Quality AQ Index Pollutant
Not available.

Snow Depth

Station Depth Elevation

Earthquake Activity

City Distance Mag. Time & Date
Minimum magnitude displayed is 2.5.

Coastal Water Temperatures

Place Temperature

Stations

Nearby Weather Stations

Station Location Temp. Windchill Dew Point Humidity Wind Precip. Elev Updated Type
                   
Wind Advisory
Statement as of 9:27 AM CDT on April 21, 2015

... Wind Advisory remains in effect until 8 PM EDT /7 PM CDT/ this
evening...

Hazardous weather...

* strong winds of 20 to 30 mph from the west... with frequent
   gusts to 45 mph expected into early evening. Isolated wind
   gusts to 50 mph possible this afternoon.

Impacts...

* scattered tree and power line damage is possible. Any
   unsecured objects will be blown around.

* Driving will be difficult... especially for high profile
   vehicles and on north-south oriented roads.

Precautionary/preparedness actions...

A Wind Advisory means that sustained winds of 30 mph... or gusts
over 45 mph are expected. Winds this strong can make driving
difficult... especially for high profile vehicles. Use extra
caution.